WEATHER DATA

TODAY
Time Temp. Dewp. Hum. Wind dir Wind speed Wind gust Bar. 1h Prec. 24h Prec.
00:19 4.9 0.5 73 40 0.3 0.6 1016.5 0.0000 0.0000
00:28 4.8 0.4 73 45 0.3 0.6 1016.5 0.0000 0.0000
00:38 4.7 0.3 73 45 0.3 0.6 1016.6 0.0000 0.0000
00:49 4.7 0.3 73 45 0.3 0.6 1016.5 0.0000 0.0000
00:59 4.7 0.3 73 39 0.3 0.6 1016.5 0.0000 0.0000
01:09 4.7 0.3 73 45 0.3 0.6 1016.7 0.0000 0.0000
01:19 4.7 0.3 73 45 0.3 0.6 1016.6 0.0000 0.0000
01:29 4.7 0.3 73 53 0.3 0.6 1016.5 0.0000 0.0000
01:39 4.7 0.3 73 49 0.3 0.6 1016.5 0.0000 0.0000
01:49 4.6 0.2 73 45 0.3 0.8 1016.5 0.0000 0.0000
02:00 4.5 0.1 73 34 0.3 0.6 1016.5 0.0000 0.0000
02:09 4.5 0.1 73 39 0.3 0.6 1016.6 0.0000 0.0000
02:19 4.5 0.1 73 38 0.3 0.6 1016.4 0.0000 0.0000
02:29 4.4 0 73 49 0.3 0.6 1016.4 0.0000 0.0000
02:40 4.4 0 73 90 0.3 0.6 1016.4 0.0000 0.0000
02:49 4.4 0.2 74 52 0.3 0.6 1016.3 0.0000 0.0000
02:59 4.3 -0.1 73 40 0.3 0.8 1016.3 0.0000 0.0000
03:10 4.1 -0.1 74 55 0.3 0.6 1016.2 0.0000 0.0000
03:20 4 -0.2 74 45 0.3 0.6 1016.3 0.0000 0.0000
03:30 4 -0.2 74 59 0.3 0.6 1016.2 0.0000 0.0000
03:39 3.9 -0.1 75 45 0.3 0.8 1016.1 0.0000 0.0000
03:50 3.8 -0.2 75 39 0.3 0.6 1016.2 0.0000 0.0000
04:00 3.7 -0.3 75 45 0.3 1.1 1016.1 0.0000 0.0000
04:10 3.6 -0.4 75 53 0.3 1.1 1016 0.0000 0.0000
04:20 3.5 -0.3 76 45 0.3 0.8 1016 0.0000 0.0000
04:30 3.4 -0.4 76 45 0.3 0.8 1016 0.0000 0.0000
04:40 3.5 -0.3 76 26 0.3 0.6 1016 0.0000 0.0000
04:50 3.5 -0.3 76 53 0.3 0.6 1016 0.0000 0.0000
05:01 3.6 -0.2 76 90 0.3 0.6 1016.1 0.0000 0.0000
05:11 3.5 -0.3 76 54 0.3 0.8 1016.2 0.0000 0.0000
05:20 3.4 -0.4 76 90 0.3 0.6 1016.2 0.0000 0.0000
05:31 3.4 -0.4 76 45 0.3 0.6 1016.2 0.0000 0.0000
05:41 3.4 -0.4 76 45 0.3 0.6 1016.1 0.0000 0.0000
05:51 3.4 -0.2 77 45 0.3 0.6 1016.3 0.0000 0.0000
06:00 3.4 -0.2 77 45 0.3 0.6 1016.2 0.0000 0.0000
06:11 3.4 -0.2 77 54 0.3 0.6 1016.4 0.0000 0.0000
06:21 3.3 -0.3 77 45 0.3 0.6 1016.4 0.0000 0.0000
06:31 3.3 -0.3 77 90 0.3 0.6 1016.4 0.0000 0.0000
06:41 3.3 -0.3 77 45 0.3 0.6 1016.3 0.0000 0.0000
06:51 3.3 -0.1 78 45 0.3 0.6 1016.3 0.0000 0.0000
07:01 3.3 -0.1 78 59 0.3 0.8 1016.4 0.0000 0.0000
07:11 3.4 -0.1 78 49 0.3 0.6 1016.6 0.0000 0.0000
07:22 3.4 -0.1 78 48 0.3 0.8 1016.5 0.0000 0.0000
07:32 3.4 -0.1 78 59 0.3 0.8 1016.6 0.0000 0.0000
07:41 3.5 0 78 90 0.3 0.6 1016.6 0.0000 0.0000
07:52 3.6 0.1 78 90 0.3 0.6 1016.8 0.0000 0.0000
08:02 3.7 0.2 78 60 0.3 0.6 1017 0.0000 0.0000
08:12 3.8 0.3 78 90 0.3 0.6 1017.1 0.0000 0.0000
08:21 3.8 0.3 78 57 0.3 0.6 1017.1 0.0000 0.0000
08:32 3.9 0.4 78 57 0.3 0.6 1017.3 0.0000 0.0000
08:42 4 0.3 77 59 0.3 0.6 1017.3 0.0000 0.0000
08:52 4.1 0.6 78 90 0.3 0.6 1017.3 0.0000 0.0000
09:02 4.2 0.7 78 60 0.3 0.6 1017.4 0.0000 0.0000
09:12 4.3 0.8 78 90 0.3 0.6 1017.5 0.0000 0.0000
09:22 4.4 0.9 78 90 0.3 0.6 1017.6 0.0000 0.0000
09:32 4.5 1 78 45 0.3 0.8 1017.9 0.0000 0.0000
09:43 4.5 1 78 90 0.3 0.6 1017.8 0.0000 0.0000
09:53 4.7 1.2 78 60 0.3 0.6 1017.9 0.0000 0.0000
10:02 4.7 1.2 78 90 0.3 0.8 1018 0.0000 0.0000
10:13 4.8 1.3 78 90 0.3 0.8 1018.2 0.0000 0.0000
10:23 4.9 1.6 79 60 0.3 0.8 1018.4 0.0000 0.0000
10:33 4.9 1.4 78 52 0.3 0.8 1018.6 0.1010 0.1000
10:42 5 1.5 78 90 0.3 1.1 1018.7 0.1010 0.1000
10:53 5.1 1.8 79 60 0.3 0.6 1018.7 0.2020 0.2000
11:03 5.1 1.6 78 90 0.3 0.6 1018.8 0.2020 0.2000
11:05 5.1 1.6 78 90 0.3 0.6 1018.8 0.3030 0.3000
11:15 5.1 1.6 78 90 0.3 0.8 1018.8 0.3030 0.3000
11:25 5.2 1.9 79 90 0.3 0.6 1018.8 0.3030 0.4000
11:35 5.2 2 80 90 0.3 0.6 1019 0.3030 0.4000
11:45 5.2 1.9 79 90 0.3 0.6 1019 0.3030 0.5000
11:55 5.2 1.9 79 90 0.3 0.6 1019 0.4040 0.6000
12:05 5.2 2 80 90 0.3 0.6 1018.9 0.3030 0.6000
12:16 5.3 2.3 81 90 0.3 0.6 1019 0.2020 0.6000
12:26 5.3 2.3 81 90 0.3 0.6 1018.9 0.2020 0.6000
12:35 5.4 2.7 83 90 0.3 0.6 1019 0.2020 0.6000
12:46 5.5 2.7 82 90 0.3 0.6 1018.9 0.1010 0.6000
12:56 5.6 2.8 82 90 0.3 0.6 1018.8 0.0000 0.6000
13:06 5.7 3 83 90 0.3 0.8 1018.8 0.0000 0.6000
13:16 5.9 3.4 84 90 0.3 1.1 1018.8 0.0000 0.6000
13:26 6.1 3.9 86 90 0.3 1.4 1018.5 0.0000 0.6000
13:36 6.6 4.6 87 90 0.3 0.8 1018.4 0.0000 0.6000
13:46 7.2 5.2 87 90 0.3 0.8 1018.4 0.0000 0.6000
13:56 7.6 5.2 85 90 0.3 1.1 1018.5 0.0000 0.6000
14:06 7.8 5.3 84 127 0.3 1.4 1018.5 0.0000 0.6000
14:16 8.1 5.4 83 123 0.6 1.1 1018.5 0.0000 0.6000
14:26 8.1 5.2 82 90 0.3 1.1 1018.3 0.0000 0.6000
14:37 8.4 5.7 83 90 0.3 1.9 1018.5 0.0000 0.6000
14:47 8.6 5.5 81 135 0.6 1.4 1018.3 0.0000 0.6000
14:56 8.8 5.2 78 90 0.3 1.1 1018.3 0.0000 0.6000
15:06 9 5.4 78 90 0.3 0.8 1018.3 0.0000 0.6000
15:17 9.1 5.3 77 90 0.3 1.1 1018.4 0.0000 0.6000
15:27 9.1 5.1 76 90 0.3 0.8 1018.4 0.0000 0.6000
15:37 9.1 5.1 76 90 0.3 0.6 1018.5 0.0000 0.6000
15:47 9.3 5.3 76 56 0.3 1.1 1018.5 0.0000 0.6000
15:57 9.3 5.1 75 45 0.3 0.6 1018.4 0.0000 0.6000
16:07 9.4 5.2 75 52 0.3 0.6 1018.6 0.0000 0.6000
16:17 9.4 5.2 75 90 0.3 0.6 1018.3 0.0000 0.6000
16:27 9.4 5.2 75 21 0.3 0.6 1018.4 0.0000 0.6000
16:37 9.3 5.1 75 90 0.3 0.6 1018.5 0.0000 0.6000
16:47 9.2 4.8 74 90 0.3 1.1 1018.4 0.0000 0.6000
16:58 9.1 4.7 74 90 0.3 0.6 1018.5 0.0000 0.6000
17:08 9 4.6 74 90 0.3 0.6 1018.4 0.0000 0.6000
17:17 8.9 4.7 75 90 0.3 0.6 1018.5 0.0000 0.6000
17:27 8.8 4.6 75 56 0.3 0.6 1018.5 0.0000 0.6000
17:38 8.6 4.4 75 49 0.3 0.8 1018.4 0.0000 0.6000
17:48 8.5 4.3 75 57 0.3 0.6 1018.5 0.0000 0.6000
17:58 8.3 4.1 75 90 0.3 0.6 1018.5 0.0000 0.6000

DAY STATISTIC

2019-02-19
TEMPERATURE
AVERAGE
5.4
HIGH
9.4
16:07
LOW
3.3
06:21
PRESSURE
AVERAGE
1017.5
HIGH
1019.0
11:35
LOW
1016.0
04:10
DEWPOINT
AVERAGE
1.7
HIGH
5.7
14:37
LOW
-0.4
04:10
HUMIDITY
AVERAGE
77
HIGH
87
13:36
LOW
73
00:19
WIND SPEED
AVERAGE
0.3
HIGH
0.6
14:16
WIND GUST
AVERAGE
0.7
HIGH
1.9
14:37
WIND DIRECTION
PREVAILING
NE
52.3%
N
0.9
NE
52.3
E
43.9
SE
2.8
S
0.0
SW
0.0
W
0.0
NW
0.0
PRECIPITATION
RAIN HOUR
0.4
RAIN DAY
0.6
TEMPERATURE (°C)
LOW
3.3
HIGH
9.4
AVERAGE
5.4
PRESSURE (hpa)
LOW
1016.0
HIGH
1019.0
AVERAGE
1017.5
DEVICE